createdAt,value
2023-03-06T00:11:35.181Z,99.99
2023-03-06T00:26:35.012Z,99.99
2023-03-06T00:41:34.864Z,99.99
2023-03-06T00:56:34.744Z,99.99
2023-03-06T01:11:34.558Z,99.99
2023-03-06T01:26:34.447Z,99.99
2023-03-06T01:41:34.250Z,99.99
2023-03-06T01:56:34.110Z,99.99
2023-03-06T02:11:34.053Z,99.99
2023-03-06T02:26:33.812Z,99.99
2023-03-06T02:41:33.675Z,99.99
2023-03-06T02:56:33.513Z,99.99
2023-03-06T03:11:33.374Z,99.68
2023-03-06T03:26:33.240Z,99.68
2023-03-06T03:41:33.080Z,99.01
2023-03-06T03:56:32.950Z,99.22
2023-03-06T04:11:32.779Z,98.02
2023-03-06T04:26:32.624Z,97.92
2023-03-06T04:41:38.994Z,97.80
2023-03-06T04:56:32.405Z,98.26
2023-03-06T05:11:32.237Z,97.85
2023-03-06T05:26:32.062Z,97.89
2023-03-06T05:41:32.019Z,98.98
2023-03-06T05:56:31.762Z,99.61
2023-03-06T06:11:31.631Z,99.71
2023-03-06T06:26:31.484Z,98.56
2023-03-06T06:41:50.617Z,98.98
2023-03-06T06:56:31.212Z,99.19
2023-03-06T07:11:31.056Z,99.19
2023-03-06T07:26:34.132Z,98.56
2023-03-06T07:41:30.775Z,99.61
2023-03-06T07:56:30.596Z,98.21
2023-03-06T08:11:30.494Z,96.01
2023-03-06T08:26:30.273Z,95.03
2023-03-06T08:41:30.093Z,95.44
2023-03-06T08:56:29.959Z,95.34
2023-03-06T09:11:29.805Z,93.67
2023-03-06T09:26:39.842Z,91.89
2023-03-06T09:41:29.476Z,92.47
2023-03-06T09:56:29.310Z,95.03
2023-03-06T10:11:29.181Z,95.76
2023-03-06T10:26:29.171Z,93.46
2023-03-06T10:41:28.864Z,95.03
2023-03-06T10:56:28.744Z,93.35
2023-03-06T11:11:37.583Z,92.63
2023-03-06T11:26:28.359Z,91.43
2023-03-06T11:41:28.372Z,91.22
2023-03-06T11:56:31.580Z,88.57
2023-03-06T12:11:29.150Z,88.12
2023-03-06T12:26:27.747Z,86.37
2023-03-06T12:41:27.547Z,83.94
2023-03-06T12:56:27.423Z,80.71
2023-03-06T13:11:27.283Z,77.72
2023-03-06T13:26:27.139Z,78.10
2023-03-06T13:41:26.999Z,69.89
2023-03-06T13:56:26.954Z,70.44
2023-03-06T14:11:28.612Z,67.67
2023-03-06T14:26:26.519Z,67.36
2023-03-06T14:41:26.379Z,59.19
2023-03-06T14:56:26.388Z,63.35
2023-03-06T15:11:26.006Z,63.79
2023-03-06T15:26:28.041Z,64.55
2023-03-06T15:41:25.776Z,67.25
2023-03-06T15:56:25.590Z,68.22
2023-03-06T16:11:29.897Z,70.81
2023-03-06T16:26:25.220Z,74.52
2023-03-06T16:41:25.059Z,75.98
2023-03-06T16:56:24.903Z,79.61
2023-03-06T17:11:24.728Z,82.67
2023-03-06T17:26:24.571Z,85.60
2023-03-06T17:41:24.390Z,87.31
2023-03-06T17:56:24.306Z,90.28
2023-03-06T18:11:24.064Z,91.27
2023-03-06T18:26:24.045Z,92.50
2023-03-06T18:41:23.896Z,94.32
2023-03-06T18:56:23.708Z,93.53
2023-03-06T19:11:23.503Z,95.19
2023-03-06T19:26:24.079Z,95.76
2023-03-06T19:41:23.338Z,96.18
2023-03-06T19:56:23.068Z,97.11
2023-03-06T20:11:23.064Z,99.36
2023-03-06T20:26:22.744Z,99.99
2023-03-06T20:41:23.109Z,99.99
2023-03-06T20:56:22.544Z,99.99
2023-03-06T21:11:22.354Z,99.99
2023-03-06T21:26:22.149Z,99.99
2023-03-06T21:41:21.978Z,99.99
2023-03-06T21:56:21.879Z,99.99
2023-03-06T22:11:22.021Z,99.99
2023-03-06T22:26:21.592Z,99.99
2023-03-06T22:41:21.328Z,99.99
2023-03-06T22:56:21.203Z,99.99
2023-03-06T23:11:21.028Z,99.99
2023-03-06T23:26:20.890Z,99.99
2023-03-06T23:41:20.750Z,99.99
2023-03-06T23:56:20.551Z,99.99
